createdAt,value
2023-10-25T00:01:07.174Z,95893.13
2023-10-25T00:03:33.853Z,95890.91
2023-10-25T00:06:00.475Z,95888.28
2023-10-25T00:08:26.928Z,95885.44
2023-10-25T00:11:01.150Z,95882.25
2023-10-25T00:13:27.672Z,95867.31
2023-10-25T00:15:54.164Z,95865.69
2023-10-25T00:18:20.759Z,95861.88
2023-10-25T00:20:47.253Z,95864.91
2023-10-25T00:23:13.720Z,95867.69
2023-10-25T00:25:40.347Z,95872.22
2023-10-25T00:28:06.923Z,95870.31
2023-10-25T00:30:33.603Z,95871.53
2023-10-25T00:33:00.196Z,95871.69
2023-10-25T00:35:27.146Z,95872.41
2023-10-25T00:37:53.644Z,95874.66
2023-10-25T00:40:20.184Z,95872.41
2023-10-25T00:42:46.773Z,95874.28
2023-10-25T00:45:13.255Z,95878.34
2023-10-25T00:47:39.784Z,95875.97
2023-10-25T00:50:06.557Z,95876.25
2023-10-25T00:52:33.063Z,95873.22
2023-10-25T00:55:00.408Z,95876.56
2023-10-25T00:57:27.025Z,95875.88
2023-10-25T00:59:53.706Z,95872.63
2023-10-25T01:02:20.281Z,95873.56
2023-10-25T01:04:46.821Z,95867.47
2023-10-25T01:07:13.464Z,95861.81
2023-10-25T01:09:40.112Z,95857.19
2023-10-25T01:12:06.950Z,95862.44
2023-10-25T01:14:33.576Z,95861.00
2023-10-25T01:17:00.387Z,95859.75
2023-10-25T01:19:27.054Z,95860.81
2023-10-25T01:21:53.965Z,95861.84
2023-10-25T01:24:21.230Z,95857.13
2023-10-25T01:26:47.727Z,95861.25
2023-10-25T01:29:14.235Z,95858.22
2023-10-25T01:31:40.779Z,95858.19
2023-10-25T01:34:07.362Z,95859.75
2023-10-25T01:36:33.875Z,95860.88
2023-10-25T01:39:00.457Z,95855.94
2023-10-25T01:41:26.968Z,95853.91
2023-10-25T01:43:53.477Z,95848.84
2023-10-25T01:46:20.014Z,95848.84
2023-10-25T01:48:46.667Z,95841.34
2023-10-25T01:51:13.208Z,95854.25
2023-10-25T01:53:39.756Z,95857.66
2023-10-25T01:56:06.326Z,95841.16
2023-10-25T01:58:32.864Z,95846.81
2023-10-25T02:00:59.474Z,95850.63
2023-10-25T02:03:26.121Z,95838.25
2023-10-25T02:05:52.747Z,95831.69
2023-10-25T02:08:19.250Z,95835.91
2023-10-25T02:10:45.815Z,95821.63
2023-10-25T02:13:12.449Z,95821.38
2023-10-25T02:15:39.007Z,95827.59
2023-10-25T02:18:05.630Z,95829.31
2023-10-25T02:20:32.247Z,95823.72
2023-10-25T02:22:58.876Z,95823.94
2023-10-25T02:25:25.406Z,95824.75
2023-10-25T02:27:51.964Z,95827.38
2023-10-25T02:30:18.499Z,95819.16
2023-10-25T02:32:45.112Z,95812.06
2023-10-25T02:35:11.632Z,95808.84
2023-10-25T02:37:38.736Z,95812.09
2023-10-25T02:40:05.626Z,95809.28
2023-10-25T02:42:32.216Z,95802.81
2023-10-25T02:44:58.734Z,95809.69
2023-10-25T02:47:25.342Z,95805.84
2023-10-25T02:49:51.883Z,95810.16
2023-10-25T02:52:18.459Z,95804.50
2023-10-25T02:54:44.947Z,95798.19
2023-10-25T02:57:11.501Z,95803.03
2023-10-25T02:59:38.111Z,95802.44
2023-10-25T03:02:05.443Z,95802.47
2023-10-25T03:04:32.014Z,95804.50
2023-10-25T03:06:58.593Z,95796.63
2023-10-25T03:09:25.150Z,95787.56
2023-10-25T03:11:51.863Z,95774.84
2023-10-25T03:14:18.341Z,95779.09
2023-10-25T03:16:44.986Z,95773.81
2023-10-25T03:19:11.565Z,95773.66
2023-10-25T03:21:38.080Z,95775.66
2023-10-25T03:24:04.729Z,95773.81
2023-10-25T03:26:31.236Z,95770.59
2023-10-25T03:28:58.599Z,95768.41
2023-10-25T03:31:25.287Z,95771.03
2023-10-25T03:33:51.945Z,95765.56
2023-10-25T03:36:18.406Z,95773.25
2023-10-25T03:38:44.952Z,95762.56
2023-10-25T03:41:11.420Z,95752.88
2023-10-25T03:43:37.979Z,95755.50
2023-10-25T03:46:08.735Z,95737.72
2023-10-25T03:48:35.926Z,95743.56
2023-10-25T03:51:05.958Z,95739.94
2023-10-25T03:53:36.193Z,95737.91
2023-10-25T03:56:02.839Z,95728.66
2023-10-25T03:58:29.469Z,95730.25
2023-10-25T04:01:03.022Z,95719.97
2023-10-25T04:03:30.014Z,95719.75
2023-10-25T04:05:56.702Z,95722.38
2023-10-25T04:08:23.363Z,95728.03
2023-10-25T04:10:53.420Z,95719.75
2023-10-25T04:13:20.187Z,95727.84
2023-10-25T04:16:03.097Z,95716.34
2023-10-25T04:18:30.282Z,95715.72
2023-10-25T04:20:57.442Z,95714.31
2023-10-25T04:23:24.907Z,95709.25
2023-10-25T04:25:51.435Z,95712.06
2023-10-25T04:28:18.475Z,95710.88
2023-10-25T04:30:45.166Z,95712.91
2023-10-25T04:33:12.268Z,95713.50
2023-10-25T04:35:38.788Z,95715.72
2023-10-25T04:38:05.276Z,95705.22
2023-10-25T04:40:32.345Z,95697.72
2023-10-25T04:42:58.896Z,95688.25
2023-10-25T04:45:25.420Z,95697.56
2023-10-25T04:47:52.429Z,95692.91
2023-10-25T04:50:21.794Z,95685.44
2023-10-25T04:52:48.748Z,95682.19
2023-10-25T04:55:15.380Z,95686.25
2023-10-25T04:57:41.976Z,95685.84
2023-10-25T05:00:11.547Z,95682.00
2023-10-25T05:02:39.631Z,95667.28
2023-10-25T05:05:07.596Z,95666.47
2023-10-25T05:07:34.717Z,95651.50
2023-10-25T05:10:01.366Z,95643.41
2023-10-25T05:12:44.141Z,95646.84
2023-10-25T05:15:11.092Z,95650.69
2023-10-25T05:17:38.405Z,95649.88
2023-10-25T05:20:08.657Z,95634.31
2023-10-25T05:22:35.748Z,95634.94
2023-10-25T05:25:05.780Z,95635.53
2023-10-25T05:27:35.779Z,95635.75
2023-10-25T05:30:05.910Z,95631.28
2023-10-25T05:32:32.819Z,95628.22
2023-10-25T05:35:00.184Z,95631.28
2023-10-25T05:37:26.830Z,95628.03
2023-10-25T05:39:53.508Z,95631.47
2023-10-25T05:42:20.665Z,95628.84
2023-10-25T05:44:47.638Z,95633.69
2023-10-25T05:47:14.790Z,95626.00
2023-10-25T05:49:42.200Z,95628.63
2023-10-25T05:52:10.332Z,95625.81
2023-10-25T05:54:37.182Z,95627.25
2023-10-25T05:57:04.406Z,95626.44
2023-10-25T05:59:31.068Z,95629.69
2023-10-25T06:02:03.727Z,95638.16
2023-10-25T06:04:31.195Z,95640.59
2023-10-25T06:06:58.013Z,95645.84
2023-10-25T06:09:24.762Z,95640.59
2023-10-25T06:11:51.443Z,95635.13
2023-10-25T06:14:18.094Z,95641.78
2023-10-25T06:16:44.707Z,95646.03
2023-10-25T06:19:11.298Z,95641.41
2023-10-25T06:21:37.851Z,95652.09
2023-10-25T06:24:04.538Z,95639.38
2023-10-25T06:26:31.311Z,95635.72
2023-10-25T06:28:57.815Z,95636.56
2023-10-25T06:31:24.330Z,95634.94
2023-10-25T06:33:50.901Z,95630.91
2023-10-25T06:36:17.702Z,95631.50
2023-10-25T06:38:44.427Z,95626.88
2023-10-25T06:41:21.147Z,95629.69
2023-10-25T06:43:47.844Z,95626.69
2023-10-25T06:46:14.528Z,95629.69
2023-10-25T06:48:41.164Z,95625.63
2023-10-25T06:51:08.148Z,95613.31
2023-10-25T06:53:34.986Z,95612.91
2023-10-25T06:56:01.653Z,95607.25
2023-10-25T06:58:28.451Z,95600.38
2023-10-25T07:00:56.635Z,95592.47
2023-10-25T07:03:35.914Z,95588.19
2023-10-25T07:06:04.380Z,95583.13
2023-10-25T07:08:34.252Z,95579.69
2023-10-25T07:11:00.767Z,95568.59
2023-10-25T07:13:31.084Z,95559.28
2023-10-25T07:15:57.777Z,95548.97
2023-10-25T07:18:24.413Z,95558.84
2023-10-25T07:20:51.766Z,95551.78
2023-10-25T07:23:18.398Z,95554.31
2023-10-25T07:25:45.132Z,95547.06
2023-10-25T07:28:11.969Z,95544.03
2023-10-25T07:30:38.509Z,95543.06
2023-10-25T07:33:05.101Z,95541.78
2023-10-25T07:35:31.669Z,95533.28
2023-10-25T07:37:58.175Z,95534.94
2023-10-25T07:40:24.850Z,95531.06
2023-10-25T07:42:51.513Z,95535.28
2023-10-25T07:45:18.170Z,95533.38
2023-10-25T07:47:44.768Z,95528.19
2023-10-25T07:50:11.363Z,95519.06
2023-10-25T07:52:38.073Z,95511.00
2023-10-25T07:55:21.506Z,95500.56
2023-10-25T07:58:22.539Z,95491.66
2023-10-25T08:00:38.047Z,95497.22
2023-10-25T08:03:04.701Z,95492.34
2023-10-25T08:05:31.432Z,95503.56
2023-10-25T08:07:57.929Z,95501.25
2023-10-25T08:10:25.217Z,95488.81
2023-10-25T08:12:52.049Z,95479.84
2023-10-25T08:15:18.993Z,95478.59
2023-10-25T08:17:45.888Z,95468.09
2023-10-25T08:20:12.764Z,95469.94
2023-10-25T08:22:39.423Z,95463.50
2023-10-25T08:25:10.345Z,95453.56
2023-10-25T08:27:37.747Z,95455.47
2023-10-25T08:30:04.703Z,95456.78
2023-10-25T08:32:31.419Z,95447.00
2023-10-25T08:34:57.945Z,95451.06
2023-10-25T08:37:24.462Z,95449.69
2023-10-25T08:39:51.002Z,95445.00
2023-10-25T08:42:17.529Z,95446.69
2023-10-25T08:44:44.295Z,95440.13
2023-10-25T08:47:11.679Z,95437.50
2023-10-25T08:49:39.157Z,95435.72
2023-10-25T08:52:06.018Z,95436.97
2023-10-25T08:54:32.603Z,95432.44
2023-10-25T08:56:59.173Z,95437.84
2023-10-25T08:59:25.785Z,95441.06
2023-10-25T09:01:52.322Z,95427.31
2023-10-25T09:04:19.010Z,95426.38
2023-10-25T09:06:46.848Z,95428.13
2023-10-25T09:09:13.497Z,95419.78
2023-10-25T09:11:44.175Z,95408.69
2023-10-25T09:14:12.203Z,95401.22
2023-10-25T09:16:46.184Z,95388.19
2023-10-25T09:19:12.959Z,95386.25
2023-10-25T09:21:39.477Z,95384.25
2023-10-25T09:24:08.983Z,95384.69
2023-10-25T09:26:36.554Z,95374.72
2023-10-25T09:29:03.164Z,95378.47
2023-10-25T09:31:30.503Z,95380.75
2023-10-25T09:33:58.824Z,95376.19
2023-10-25T09:36:25.884Z,95380.44
2023-10-25T09:38:52.409Z,95370.47
2023-10-25T09:41:19.072Z,95369.41
2023-10-25T09:43:52.572Z,95364.03
2023-10-25T09:46:20.442Z,95360.25
2023-10-25T09:48:54.046Z,95342.84
2023-10-25T09:51:24.927Z,95341.94
2023-10-25T09:53:59.483Z,95344.84
2023-10-25T09:56:26.014Z,95342.22
2023-10-25T09:58:52.522Z,95345.44
2023-10-25T10:01:19.027Z,95334.00
2023-10-25T10:03:50.868Z,95322.81
2023-10-25T10:06:29.732Z,95321.66
2023-10-25T10:09:10.702Z,95293.88
2023-10-25T10:11:41.784Z,95300.16
2023-10-25T10:14:27.421Z,95285.28
2023-10-25T10:16:56.781Z,95283.13
2023-10-25T10:19:23.686Z,95291.00
2023-10-25T10:22:03.284Z,95274.16
2023-10-25T10:24:48.216Z,95280.38
2023-10-25T10:27:18.230Z,95278.97
2023-10-25T10:29:45.581Z,95274.03
2023-10-25T10:32:12.347Z,95265.59
2023-10-25T10:34:57.557Z,95257.91
2023-10-25T10:37:25.969Z,95244.97
2023-10-25T10:40:02.147Z,95247.47
2023-10-25T10:42:32.190Z,95237.38
2023-10-25T10:44:59.308Z,95247.81
2023-10-25T10:47:58.634Z,95241.50
2023-10-25T10:50:26.110Z,95241.97
2023-10-25T10:52:53.077Z,95237.03
2023-10-25T10:55:23.548Z,95231.88
2023-10-25T10:58:06.834Z,95231.66
2023-10-25T11:00:34.895Z,95224.91
2023-10-25T11:03:02.240Z,95217.31
2023-10-25T11:05:30.627Z,95210.34
2023-10-25T11:07:57.283Z,95216.72
2023-10-25T11:10:24.137Z,95202.16
2023-10-25T11:12:51.253Z,95193.22
2023-10-25T11:15:18.061Z,95197.19
2023-10-25T11:17:44.774Z,95184.59
2023-10-25T11:20:11.463Z,95180.91
2023-10-25T11:22:37.977Z,95176.88
2023-10-25T11:25:08.682Z,95180.03
2023-10-25T11:27:36.153Z,95161.63
2023-10-25T11:30:02.918Z,95157.63
2023-10-25T11:32:29.754Z,95162.19
2023-10-25T11:34:57.569Z,95153.25
2023-10-25T11:37:24.310Z,95150.88
2023-10-25T11:40:02.334Z,95133.03
2023-10-25T11:42:30.885Z,95130.97
2023-10-25T11:44:58.256Z,95134.28
2023-10-25T11:47:24.925Z,95127.75
2023-10-25T11:49:56.034Z,95120.66
2023-10-25T11:52:22.958Z,95115.06
2023-10-25T11:54:51.071Z,95113.34
2023-10-25T11:57:17.546Z,95110.66
2023-10-25T11:59:44.025Z,95108.09
2023-10-25T12:02:10.563Z,95110.59
2023-10-25T12:04:37.095Z,95096.19
2023-10-25T12:07:06.033Z,95094.81
2023-10-25T12:09:32.612Z,95087.97
2023-10-25T12:11:59.137Z,95076.94
2023-10-25T12:14:32.392Z,95072.91
2023-10-25T12:16:59.915Z,95071.41
2023-10-25T12:19:26.416Z,95066.16
2023-10-25T12:21:55.296Z,95071.88
2023-10-25T12:24:22.777Z,95064.31
2023-10-25T12:26:49.246Z,95060.31
2023-10-25T12:29:15.755Z,95064.56
2023-10-25T12:31:42.216Z,95059.28
2023-10-25T12:34:08.723Z,95032.28
2023-10-25T12:36:35.163Z,95037.31
2023-10-25T12:39:01.694Z,95035.38
2023-10-25T12:41:28.226Z,95033.09
2023-10-25T12:43:54.700Z,95034.03
2023-10-25T12:46:21.170Z,95033.00
2023-10-25T12:48:47.727Z,95031.84
2023-10-25T12:51:14.240Z,95022.78
2023-10-25T12:53:40.703Z,95020.88
2023-10-25T12:56:07.184Z,95017.31
2023-10-25T12:58:33.646Z,95006.44
2023-10-25T13:01:00.709Z,95019.34
2023-10-25T13:03:27.405Z,95014.91
2023-10-25T13:05:54.154Z,94990.25
2023-10-25T13:08:20.718Z,94982.53
2023-10-25T13:10:47.194Z,94978.97
2023-10-25T13:13:13.623Z,94972.13
2023-10-25T13:15:40.348Z,94971.75
2023-10-25T13:18:06.948Z,94979.41
2023-10-25T13:20:33.681Z,94978.69
2023-10-25T13:23:00.980Z,94965.53
2023-10-25T13:25:27.725Z,94964.50
2023-10-25T13:27:54.151Z,94956.41
2023-10-25T13:30:20.627Z,94952.31
2023-10-25T13:32:47.111Z,94947.47
2023-10-25T13:35:13.641Z,94941.94
2023-10-25T13:37:41.276Z,94942.03
2023-10-25T13:40:08.483Z,94932.31
2023-10-25T13:42:34.917Z,94936.31
2023-10-25T13:45:02.065Z,94936.31
2023-10-25T13:47:28.722Z,94915.97
2023-10-25T13:49:55.276Z,94916.75
2023-10-25T13:52:21.722Z,94911.38
2023-10-25T13:54:48.200Z,94919.97
2023-10-25T13:57:14.662Z,94914.56
2023-10-25T13:59:41.564Z,94920.06
2023-10-25T14:02:09.699Z,94905.97
2023-10-25T14:04:36.226Z,94900.31
2023-10-25T14:07:02.755Z,94898.25
2023-10-25T14:09:30.995Z,94892.81
2023-10-25T14:11:59.021Z,94891.78
2023-10-25T14:14:25.466Z,94885.38
2023-10-25T14:16:51.933Z,94892.38
2023-10-25T14:19:21.281Z,94878.19
2023-10-25T14:21:47.754Z,94870.06
2023-10-25T14:24:14.984Z,94869.19
2023-10-25T14:26:42.582Z,94873.88
2023-10-25T14:29:09.350Z,94870.53
2023-10-25T14:31:36.079Z,94852.34
2023-10-25T14:34:02.881Z,94858.19
2023-10-25T14:36:32.703Z,94845.69
2023-10-25T14:38:59.289Z,94851.75
2023-10-25T14:41:25.849Z,94851.88
2023-10-25T14:43:52.290Z,94855.56
2023-10-25T14:46:20.290Z,94849.34
2023-10-25T14:48:47.372Z,94845.78
2023-10-25T14:51:18.262Z,94837.88
2023-10-25T14:53:48.806Z,94837.31
2023-10-25T14:56:15.321Z,94823.72
2023-10-25T14:58:41.865Z,94820.50
2023-10-25T15:01:17.339Z,94823.25
2023-10-25T15:03:43.967Z,94810.34
2023-10-25T15:06:10.671Z,94813.84
2023-10-25T15:08:38.072Z,94807.00
2023-10-25T15:11:04.499Z,94816.72
2023-10-25T15:13:30.964Z,94820.38
2023-10-25T15:15:58.408Z,94818.31
2023-10-25T15:18:24.933Z,94809.63
2023-10-25T15:20:51.457Z,94811.31
2023-10-25T15:23:18.617Z,94812.25
2023-10-25T15:25:45.026Z,94805.47
2023-10-25T15:28:11.616Z,94794.41
2023-10-25T15:30:40.192Z,94795.19
2023-10-25T15:33:08.503Z,94790.16
2023-10-25T15:35:34.977Z,94793.59
2023-10-25T15:38:01.453Z,94783.41
2023-10-25T15:40:31.514Z,94776.84
2023-10-25T15:42:59.983Z,94778.59
2023-10-25T15:45:26.782Z,94782.84
2023-10-25T15:47:53.398Z,94772.31
2023-10-25T15:50:19.969Z,94768.06
2023-10-25T15:52:52.025Z,94763.13
2023-10-25T15:55:30.428Z,94764.16
2023-10-25T15:57:56.864Z,94771.81
2023-10-25T16:00:23.832Z,94754.69
2023-10-25T16:02:50.345Z,94755.78
2023-10-25T16:05:17.060Z,94757.75
2023-10-25T16:07:43.514Z,94759.00
2023-10-25T16:10:10.117Z,94750.06
2023-10-25T16:12:36.555Z,94756.13
2023-10-25T16:15:03.178Z,94750.06
2023-10-25T16:17:30.028Z,94744.78
2023-10-25T16:19:56.525Z,94748.81
2023-10-25T16:22:23.010Z,94746.63
2023-10-25T16:24:49.467Z,94741.84
2023-10-25T16:27:16.113Z,94744.00
2023-10-25T16:29:42.859Z,94745.59
2023-10-25T16:32:09.588Z,94737.69
2023-10-25T16:34:36.112Z,94736.22
2023-10-25T16:37:06.183Z,94742.03
2023-10-25T16:39:33.961Z,94743.06
2023-10-25T16:42:01.134Z,94740.75
2023-10-25T16:44:27.671Z,94739.78
2023-10-25T16:46:54.261Z,94743.69
2023-10-25T16:49:20.726Z,94742.09
2023-10-25T16:51:47.279Z,94735.56
2023-10-25T16:54:13.772Z,94733.97
2023-10-25T16:56:40.375Z,94739.56
2023-10-25T16:59:06.836Z,94738.53
2023-10-25T17:01:33.347Z,94737.47
2023-10-25T17:04:00.096Z,94730.81
2023-10-25T17:06:26.939Z,94733.50
2023-10-25T17:08:54.676Z,94731.34
2023-10-25T17:11:23.259Z,94730.63
2023-10-25T17:13:49.696Z,94734.88
2023-10-25T17:16:17.878Z,94741.28
2023-10-25T17:18:45.460Z,94725.69
2023-10-25T17:21:14.423Z,94733.69
2023-10-25T17:23:41.530Z,94732.09
2023-10-25T17:26:08.027Z,94734.72
2023-10-25T17:28:35.090Z,94733.44
2023-10-25T17:31:01.908Z,94735.59
2023-10-25T17:33:29.237Z,94734.56
2023-10-25T17:35:56.007Z,94737.19
2023-10-25T17:38:22.550Z,94738.22
2023-10-25T17:40:49.933Z,94737.97
2023-10-25T17:43:16.616Z,94736.16
2023-10-25T17:46:00.553Z,94734.06
2023-10-25T17:48:30.577Z,94739.66
2023-10-25T17:50:57.201Z,94739.41
2023-10-25T17:53:23.853Z,94739.19
2023-10-25T17:55:50.350Z,94736.06
2023-10-25T17:58:16.838Z,94737.66
2023-10-25T18:00:46.845Z,94729.75
2023-10-25T18:03:13.573Z,94734.31
2023-10-25T18:05:40.737Z,94739.03
2023-10-25T18:08:12.264Z,94737.44
2023-10-25T18:10:42.314Z,94745.66
2023-10-25T18:13:08.871Z,94734.63
2023-10-25T18:15:36.439Z,94734.63
2023-10-25T18:18:04.567Z,94727.25
2023-10-25T18:20:31.504Z,94733.66
2023-10-25T18:22:58.033Z,94734.47
2023-10-25T18:25:27.547Z,94736.31
2023-10-25T18:27:58.291Z,94744.84
2023-10-25T18:31:53.918Z,94742.19
2023-10-25T18:33:12.017Z,94738.53
2023-10-25T18:35:38.776Z,94739.56
2023-10-25T18:38:05.961Z,94735.41
2023-10-25T18:40:32.411Z,94732.75
2023-10-25T18:42:58.911Z,94744.34
2023-10-25T18:45:25.456Z,94742.25
2023-10-25T18:47:52.015Z,94736.91
2023-10-25T18:50:18.714Z,94735.88
2023-10-25T18:52:45.233Z,94733.50
2023-10-25T18:55:13.495Z,94733.72
2023-10-25T18:57:39.992Z,94736.38
2023-10-25T19:00:09.442Z,94736.91
2023-10-25T19:02:36.300Z,94741.72
2023-10-25T19:06:30.816Z,94741.66
2023-10-25T19:08:26.544Z,94742.19
2023-10-25T19:10:36.559Z,94735.09
2023-10-25T19:13:04.027Z,94746.44
2023-10-25T19:15:30.745Z,94737.00
2023-10-25T19:17:57.513Z,94745.44
2023-10-25T19:20:24.021Z,94744.34
2023-10-25T19:22:51.160Z,94743.25
2023-10-25T19:25:17.815Z,94750.59
2023-10-25T19:27:44.301Z,94752.97
2023-10-25T19:30:13.167Z,94752.19
2023-10-25T19:32:39.725Z,94760.25
2023-10-25T19:35:06.322Z,94753.63
2023-10-25T19:37:34.634Z,94756.50
2023-10-25T19:40:01.473Z,94759.31
2023-10-25T19:42:27.991Z,94761.22
2023-10-25T19:44:54.529Z,94759.84
2023-10-25T19:47:21.285Z,94764.56
2023-10-25T19:49:47.788Z,94767.28
2023-10-25T19:52:14.388Z,94779.34
2023-10-25T19:54:40.955Z,94774.06
2023-10-25T19:57:07.516Z,94769.53
2023-10-25T19:59:34.045Z,94782.13
2023-10-25T20:02:00.720Z,94782.22
2023-10-25T20:04:29.235Z,94778.94
2023-10-25T20:06:55.886Z,94786.72
2023-10-25T20:09:22.466Z,94788.00
2023-10-25T20:11:49.079Z,94795.69
2023-10-25T20:14:15.596Z,94786.66
2023-10-25T20:16:42.066Z,94792.16
2023-10-25T20:19:09.901Z,94790.81
2023-10-25T20:21:36.367Z,94797.19
2023-10-25T20:24:03.494Z,94799.97
2023-10-25T20:26:34.775Z,94788.66
2023-10-25T20:29:02.120Z,94795.66
2023-10-25T20:31:28.630Z,94784.06
2023-10-25T20:33:55.086Z,94792.22
2023-10-25T20:36:21.827Z,94791.09
2023-10-25T20:38:49.101Z,94798.03
2023-10-25T20:41:15.992Z,94792.13
2023-10-25T20:43:42.457Z,94794.19
2023-10-25T20:46:09.217Z,94797.16
2023-10-25T20:48:35.866Z,94802.41
2023-10-25T20:51:05.751Z,94803.69
2023-10-25T20:53:34.025Z,94808.97
2023-10-25T20:56:01.071Z,94815.34
2023-10-25T20:58:28.089Z,94819.97
2023-10-25T21:00:54.619Z,94817.09
2023-10-25T21:03:21.217Z,94825.72
2023-10-25T21:05:53.884Z,94824.56
2023-10-25T21:08:20.342Z,94824.91
2023-10-25T21:10:46.814Z,94825.47
2023-10-25T21:13:13.459Z,94827.78
2023-10-25T21:15:39.930Z,94828.69
2023-10-25T21:18:06.705Z,94833.41
2023-10-25T21:20:33.361Z,94831.31
2023-10-25T21:23:00.229Z,94838.91
2023-10-25T21:25:26.721Z,94838.56
2023-10-25T21:27:53.204Z,94839.94
2023-10-25T21:30:19.697Z,94849.66
2023-10-25T21:32:46.259Z,94848.06
2023-10-25T21:35:12.824Z,94835.38
2023-10-25T21:37:41.213Z,94840.16
2023-10-25T21:40:08.002Z,94836.50
2023-10-25T21:42:34.475Z,94838.25
2023-10-25T21:45:00.924Z,94844.53
2023-10-25T21:47:27.413Z,94849.56
2023-10-25T21:49:54.024Z,94857.56
2023-10-25T21:52:20.465Z,94855.41
2023-10-25T21:54:46.892Z,94858.50
2023-10-25T21:57:13.414Z,94855.31
2023-10-25T21:59:49.969Z,94856.09
2023-10-25T22:02:26.950Z,94856.31
2023-10-25T22:04:54.203Z,94866.84
2023-10-25T22:07:21.009Z,94859.97
2023-10-25T22:09:47.815Z,94864.78
2023-10-25T22:12:14.350Z,94864.19
2023-10-25T22:14:40.838Z,94869.59
2023-10-25T22:17:07.636Z,94870.06
2023-10-25T22:19:34.112Z,94867.88
2023-10-25T22:22:00.588Z,94873.28
2023-10-25T22:24:27.112Z,94870.63
2023-10-25T22:26:53.675Z,94870.16
2023-10-25T22:29:20.273Z,94867.22
2023-10-25T22:31:46.813Z,94870.88
2023-10-25T22:34:18.226Z,94879.44
2023-10-25T22:36:49.192Z,94875.19
2023-10-25T22:39:16.360Z,94873.50
2023-10-25T22:41:46.211Z,94877.72
2023-10-25T22:44:13.273Z,94877.41
2023-10-25T22:46:40.010Z,94881.06
2023-10-25T22:49:06.551Z,94880.72
2023-10-25T22:51:33.134Z,94873.88
2023-10-25T22:53:59.707Z,94882.91
2023-10-25T22:56:26.261Z,94886.78
2023-10-25T22:58:52.728Z,94886.00
2023-10-25T23:01:19.212Z,94883.47
2023-10-25T23:03:45.763Z,94891.34
2023-10-25T23:06:12.305Z,94886.09
2023-10-25T23:08:38.809Z,94890.88
2023-10-25T23:11:05.299Z,94889.19
2023-10-25T23:13:31.797Z,94898.69
2023-10-25T23:16:01.836Z,94893.41
2023-10-25T23:18:28.470Z,94891.81
2023-10-25T23:20:55.095Z,94895.81
2023-10-25T23:23:21.574Z,94900.50
2023-10-25T23:25:48.044Z,94903.81
2023-10-25T23:28:14.502Z,94910.09
2023-10-25T23:30:40.997Z,94906.69
2023-10-25T23:33:07.560Z,94910.56
2023-10-25T23:35:34.073Z,94914.22
2023-10-25T23:38:00.721Z,94917.66
2023-10-25T23:40:27.172Z,94916.28
2023-10-25T23:42:53.596Z,94916.88
2023-10-25T23:45:20.152Z,94930.13
2023-10-25T23:47:46.765Z,94922.94
2023-10-25T23:50:13.308Z,94922.59
2023-10-25T23:52:44.489Z,94928.31
2023-10-25T23:55:12.988Z,94926.59
2023-10-25T23:57:39.458Z,94924.53
